createdAt,value
2018-05-29T12:47:25.451Z,23.2
2018-05-29T12:48:15.547Z,23.2
2018-05-29T12:49:04.248Z,23.2
2018-05-29T12:49:55.620Z,23.2
2018-05-29T12:50:45.421Z,23.3
2018-05-29T12:51:35.460Z,23.3
2018-05-29T12:52:25.809Z,23.3
2018-05-29T12:53:16.671Z,23.3
2018-05-29T12:54:05.405Z,23.2
2018-05-29T12:54:56.345Z,23.3
2018-05-29T12:55:46.169Z,23.2
2018-05-29T12:56:36.109Z,23.2
2018-05-29T12:57:26.636Z,23.2
2018-05-29T12:58:16.289Z,23.2
2018-05-29T12:59:05.962Z,23.3
2018-05-29T12:59:56.430Z,23.3
2018-05-29T13:00:46.467Z,23.2
2018-05-29T13:01:35.993Z,23.2
2018-05-29T13:02:26.688Z,23.2
2018-05-29T13:03:16.626Z,23.2
2018-05-29T13:04:07.037Z,23.3
2018-05-29T13:04:56.784Z,23.3
2018-05-29T13:05:46.302Z,23.2
2018-05-29T13:06:36.933Z,23.2
2018-05-29T13:07:26.683Z,23.3
2018-05-29T13:08:16.211Z,23.3
2018-05-29T13:09:07.143Z,23.3
2018-05-29T13:09:56.573Z,23.3
2018-05-29T13:10:47.560Z,23.2
2018-05-29T13:11:36.738Z,23.2
2018-05-29T13:12:27.040Z,23.2
2018-05-29T13:13:17.421Z,23.3
2018-05-29T13:14:07.450Z,23.3
2018-05-29T13:14:57.794Z,23.3
2018-05-29T13:15:47.895Z,23.3
2018-05-29T13:16:37.437Z,23.2
2018-05-29T13:17:28.005Z,23.2
2018-05-29T13:18:18.064Z,23.2
2018-05-29T13:19:07.597Z,23.3
2018-05-29T13:19:58.203Z,23.3
2018-05-29T13:20:48.050Z,23.3
2018-05-29T13:21:37.769Z,23.3
2018-05-29T13:22:27.444Z,23.3
2018-05-29T13:23:18.184Z,23.3
2018-05-29T13:24:08.547Z,23.3
2018-05-29T13:24:58.015Z,23.3
2018-05-29T13:25:47.787Z,23.3
2018-05-29T13:26:38.702Z,23.3
2018-05-29T13:27:27.971Z,23.3
2018-05-29T13:28:18.049Z,23.3
2018-05-29T13:29:08.974Z,23.3
2018-05-29T13:29:58.972Z,23.3
2018-05-29T13:30:48.492Z,23.3
2018-05-29T13:31:38.564Z,23.3
2018-05-29T13:32:29.306Z,23.3
2018-05-29T13:33:18.931Z,23.3
2018-05-29T13:34:08.740Z,23.3
2018-05-29T13:34:59.404Z,23.3
2018-05-29T13:35:49.236Z,23.3
2018-05-29T13:36:39.256Z,23.3
2018-05-29T13:37:29.580Z,23.3
2018-05-29T13:38:19.532Z,23.3
2018-05-29T13:39:10.034Z,23.3
2018-05-29T13:39:59.740Z,23.3
2018-05-29T13:40:49.559Z,23.3
2018-05-29T13:41:39.338Z,23.3
2018-05-29T13:42:29.405Z,23.3
2018-05-29T13:43:19.150Z,23.3
2018-05-29T13:44:09.293Z,23.3
2018-05-29T13:44:59.535Z,23.3
2018-05-29T13:45:49.315Z,23.3
2018-05-29T13:46:39.949Z,23.3
2018-05-29T13:47:29.708Z,23.3
2018-05-29T13:48:20.113Z,23.3
2018-05-29T13:49:10.678Z,23.3
2018-05-29T13:50:00.482Z,23.3
2018-05-29T13:50:49.429Z,23.3
2018-05-29T13:51:40.309Z,23.3
2018-05-29T13:52:30.100Z,23.3
2018-05-29T13:53:20.185Z,23.3
2018-05-29T13:54:09.668Z,23.3
2018-05-29T13:55:00.570Z,23.3
2018-05-29T13:55:50.350Z,23.3
2018-05-29T13:56:39.949Z,23.3
2018-05-29T13:57:30.562Z,23.3
2018-05-29T13:58:20.875Z,23.3
2018-05-29T13:59:10.907Z,23.3
2018-05-29T14:00:00.100Z,23.3
2018-05-29T14:00:50.844Z,23.3
2018-05-29T14:01:40.839Z,23.3
2018-05-29T14:02:31.203Z,23.3
2018-05-29T14:03:21.696Z,23.3
2018-05-29T14:04:11.564Z,23.3
2018-05-29T14:05:01.361Z,23.3
2018-05-29T14:05:51.442Z,23.3
2018-05-29T14:06:41.584Z,23.3
2018-05-29T14:07:31.286Z,23.3
2018-05-29T14:08:21.073Z,23.3
2018-05-29T14:09:12.317Z,23.3
2018-05-29T14:10:01.775Z,23.3
2018-05-29T14:10:51.812Z,23.3
2018-05-29T14:11:41.573Z,23.3
2018-05-29T14:12:31.431Z,23.3
2018-05-29T14:13:21.721Z,23.3
2018-05-29T14:14:12.362Z,23.3
2018-05-29T14:15:02.080Z,23.3
2018-05-29T14:15:51.914Z,23.3
2018-05-29T14:16:42.572Z,23.3
2018-05-29T14:17:31.797Z,23.3
2018-05-29T14:18:22.166Z,23.3
2018-05-29T14:19:12.791Z,23.3
2018-05-29T14:20:02.850Z,23.3
2018-05-29T14:20:52.651Z,23.3
2018-05-29T14:21:42.649Z,23.3
2018-05-29T14:22:32.452Z,23.3
2018-05-29T14:23:22.329Z,23.3
2018-05-29T14:24:13.139Z,23.3
2018-05-29T14:25:02.087Z,23.3
2018-05-29T14:25:52.709Z,23.3
2018-05-29T14:26:42.846Z,23.3
2018-05-29T14:27:32.820Z,23.3
2018-05-29T14:28:22.911Z,23.3
2018-05-29T14:29:13.243Z,23.3
2018-05-29T14:30:03.564Z,23.3
2018-05-29T14:30:53.085Z,23.3
2018-05-29T14:31:43.695Z,23.3
2018-05-29T14:32:33.191Z,23.3
2018-05-29T14:33:23.802Z,23.3
2018-05-29T14:34:13.306Z,23.3
2018-05-29T14:35:02.837Z,23.3
2018-05-29T14:35:54.021Z,23.3
2018-05-29T14:36:44.054Z,23.3
2018-05-29T14:37:33.254Z,23.3
2018-05-29T14:38:24.046Z,23.3
2018-05-29T14:39:14.258Z,23.3
2018-05-29T14:40:03.499Z,23.3
2018-05-29T14:40:53.003Z,23.3
2018-05-29T14:41:44.402Z,23.3
2018-05-29T14:42:34.527Z,23.3
2018-05-29T14:43:24.333Z,23.3
2018-05-29T14:44:16.003Z,23.3
2018-05-29T14:45:03.947Z,23.3
2018-05-29T14:45:54.487Z,23.3
2018-05-29T14:46:44.850Z,23.3
2018-05-29T14:47:34.339Z,23.3
2018-05-29T14:48:24.729Z,23.3
2018-05-29T14:49:14.789Z,23.3
2018-05-29T14:50:05.100Z,23.3
2018-05-29T14:50:54.396Z,23.3
2018-05-29T14:51:45.193Z,23.3
2018-05-29T14:52:34.991Z,23.3
2018-05-29T14:53:25.356Z,23.3
2018-05-29T14:54:14.818Z,23.3
2018-05-29T14:55:05.468Z,23.3
2018-05-29T14:55:55.018Z,23.3
2018-05-29T14:56:44.840Z,23.3
2018-05-29T14:57:34.861Z,23.3
2018-05-29T14:58:25.482Z,23.3
2018-05-29T14:59:14.970Z,23.3
2018-05-29T15:00:05.864Z,23.3
2018-05-29T15:00:53.972Z,23.3
2018-05-29T15:01:45.994Z,23.3
2018-05-29T15:02:35.213Z,23.3
2018-05-29T15:03:25.361Z,23.3
2018-05-29T15:04:15.935Z,23.3
2018-05-29T15:05:05.971Z,23.3
2018-05-29T15:05:54.996Z,23.3
2018-05-29T15:06:46.092Z,23.3
2018-05-29T15:07:36.134Z,23.3
2018-05-29T15:08:25.523Z,23.3
2018-05-29T15:09:16.187Z,23.3
2018-05-29T15:10:06.361Z,23.3
2018-05-29T15:10:56.502Z,23.3
2018-05-29T15:11:46.472Z,23.3
2018-05-29T15:12:36.322Z,23.3
2018-05-29T15:13:26.076Z,23.3
2018-05-29T15:14:16.442Z,23.3
2018-05-29T15:15:05.662Z,23.3
2018-05-29T15:15:56.373Z,23.3
2018-05-29T15:16:46.924Z,23.3
2018-05-29T15:17:36.440Z,23.3
2018-05-29T15:18:27.076Z,23.2
2018-05-29T15:19:16.301Z,23.3
2018-05-29T15:20:06.926Z,23.3
2018-05-29T15:20:57.275Z,23.3
2018-05-29T15:21:47.240Z,23.3
2018-05-29T15:22:36.865Z,23.3
2018-05-29T15:23:26.933Z,23.2
2018-05-29T15:24:16.858Z,23.2
2018-05-29T15:25:07.691Z,23.2
2018-05-29T15:25:57.621Z,23.2
2018-05-29T15:26:47.361Z,23.2
2018-05-29T15:27:38.009Z,23.2
2018-05-29T15:28:28.091Z,23.3
2018-05-29T15:29:17.016Z,23.2
2018-05-29T15:30:07.615Z,23.2
2018-05-29T15:30:57.665Z,23.3
2018-05-29T15:31:48.282Z,23.3
2018-05-29T15:32:37.784Z,23.3
2018-05-29T15:33:28.453Z,23.2
2018-05-29T15:34:17.923Z,23.2
2018-05-29T15:35:08.613Z,23.3
2018-05-29T15:35:58.340Z,23.3
2018-05-29T15:36:47.835Z,23.2
2018-05-29T15:37:38.463Z,23.2
2018-05-29T15:38:28.516Z,23.2
2018-05-29T15:39:18.629Z,23.2
2018-05-29T15:40:08.933Z,23.3
2018-05-29T15:40:58.657Z,23.2
2018-05-29T15:41:48.789Z,23.2
2018-05-29T15:42:38.895Z,23.3
2018-05-29T15:43:28.655Z,23.2
2018-05-29T15:44:19.001Z,23.2
2018-05-29T15:45:09.088Z,23.2
2018-05-29T15:45:58.537Z,23.2
2018-05-29T15:46:49.194Z,23.2
2018-05-29T15:47:38.742Z,23.2
2018-05-29T15:48:28.221Z,23.2
2018-05-29T15:49:19.349Z,23.2
2018-05-29T15:50:09.119Z,23.2
2018-05-29T15:50:59.202Z,23.2
2018-05-29T15:51:49.811Z,23.2
2018-05-29T15:52:39.076Z,23.2
2018-05-29T15:53:30.685Z,23.2
2018-05-29T15:54:19.401Z,23.2
2018-05-29T15:55:09.766Z,23.2
2018-05-29T15:56:00.107Z,23.2
2018-05-29T15:56:49.405Z,23.2
2018-05-29T15:57:40.013Z,23.2
2018-05-29T15:58:29.769Z,23.2
2018-05-29T15:59:20.375Z,23.2
2018-05-29T16:00:09.968Z,23.1
2018-05-29T16:00:59.637Z,23.2
2018-05-29T16:01:50.557Z,23.2
2018-05-29T16:02:40.613Z,23.1
2018-05-29T16:03:30.701Z,23.2
2018-05-29T16:04:20.234Z,23.2
2018-05-29T16:05:10.823Z,23.1
2018-05-29T16:06:00.025Z,23.2
2018-05-29T16:06:51.032Z,23.2
2018-05-29T16:07:40.731Z,23.2
2018-05-29T16:08:30.643Z,23.1
2018-05-29T16:09:20.943Z,23.2
2018-05-29T16:10:11.006Z,23.2
2018-05-29T16:11:01.355Z,23.2
2018-05-29T16:11:50.837Z,23.2
2018-05-29T16:12:41.189Z,23.1
2018-05-29T16:13:30.965Z,23.1
2018-05-29T16:14:21.755Z,23.2
2018-05-29T16:15:11.453Z,23.2
2018-05-29T16:16:01.132Z,23.1
2018-05-29T16:16:51.369Z,23.1
2018-05-29T16:17:41.105Z,23.1
2018-05-29T16:18:30.825Z,23.1
2018-05-29T16:19:21.808Z,23.1
2018-05-29T16:20:10.951Z,23.1
2018-05-29T16:21:01.298Z,23.1
2018-05-29T16:21:51.400Z,23.1
2018-05-29T16:22:41.674Z,23.1
2018-05-29T16:23:31.862Z,23.1
2018-05-29T16:24:22.179Z,23.1
2018-05-29T16:25:12.254Z,23.1
2018-05-29T16:26:01.460Z,23.1
2018-05-29T16:26:52.585Z,23.1
2018-05-29T16:27:41.530Z,23.1
2018-05-29T16:28:32.507Z,23.1
2018-05-29T16:29:22.205Z,23.1
2018-05-29T16:30:12.606Z,23.1
2018-05-29T16:31:02.116Z,23.1
2018-05-29T16:31:52.446Z,23.1
2018-05-29T16:32:42.479Z,23.1
2018-05-29T16:33:32.834Z,23.1
2018-05-29T16:34:22.643Z,23.1
2018-05-29T16:35:12.352Z,23.1
2018-05-29T16:36:03.320Z,23.1
2018-05-29T16:36:53.117Z,23.1
2018-05-29T16:37:42.307Z,23.1
2018-05-29T16:38:32.656Z,23.1
2018-05-29T16:39:23.291Z,23.1
2018-05-29T16:40:12.448Z,23.1
2018-05-29T16:41:03.424Z,23.1
2018-05-29T16:41:53.810Z,23.1
2018-05-29T16:42:43.546Z,23.1
2018-05-29T16:43:33.627Z,23.1
2018-05-29T16:44:23.645Z,23.1
2018-05-29T16:45:13.179Z,23.1
2018-05-29T16:46:03.783Z,23.1
2018-05-29T16:46:54.143Z,23.1
2018-05-29T16:47:43.705Z,23.1
2018-05-29T16:48:34.263Z,23.1
2018-05-29T16:49:23.752Z,23.1
2018-05-29T16:50:14.193Z,23.1
2018-05-29T16:51:03.871Z,23.1
2018-05-29T16:51:54.177Z,23
2018-05-29T16:52:43.676Z,23
2018-05-29T16:53:34.256Z,23
2018-05-29T16:54:24.097Z,23
2018-05-29T16:55:14.663Z,23
2018-05-29T16:56:04.455Z,23
2018-05-29T16:56:54.253Z,23
2018-05-29T16:57:44.572Z,23
2018-05-29T16:58:34.102Z,23
2018-05-29T16:59:24.499Z,23
2018-05-29T17:00:15.102Z,23
2018-05-29T17:01:04.814Z,23
2018-05-29T17:01:54.912Z,23
2018-05-29T17:02:44.778Z,23
2018-05-29T17:03:35.100Z,23
2018-05-29T17:04:25.171Z,22.9
2018-05-29T17:05:15.588Z,22.9
2018-05-29T17:06:04.437Z,22.9
2018-05-29T17:06:55.329Z,22.9
2018-05-29T17:07:44.845Z,23
2018-05-29T17:08:35.481Z,22.9
2018-05-29T17:09:25.651Z,23
2018-05-29T17:10:15.673Z,22.9
2018-05-29T17:11:05.689Z,22.9
2018-05-29T17:11:55.788Z,22.9
2018-05-29T17:12:45.476Z,22.9
2018-05-29T17:13:35.589Z,22.9
2018-05-29T17:14:26.144Z,22.9
2018-05-29T17:15:17.506Z,22.9
2018-05-29T17:16:06.280Z,22.9
2018-05-29T17:16:56.007Z,22.9
2018-05-29T17:17:46.344Z,22.9
2018-05-29T17:18:36.144Z,22.9
2018-05-29T17:19:26.240Z,22.9
2018-05-29T17:20:16.543Z,22.9
2018-05-29T17:21:06.030Z,22.9
2018-05-29T17:21:56.392Z,22.9
2018-05-29T17:22:46.412Z,22.9
2018-05-29T17:23:35.771Z,22.9
2018-05-29T17:24:26.660Z,22.9
2018-05-29T17:25:16.352Z,22.9
2018-05-29T17:26:07.009Z,22.9
2018-05-29T17:26:57.087Z,22.9
2018-05-29T17:27:46.848Z,22.9
2018-05-29T17:28:37.212Z,22.9
2018-05-29T17:29:26.736Z,22.9
2018-05-29T17:30:16.235Z,22.9
2018-05-29T17:31:07.123Z,22.8
2018-05-29T17:31:58.115Z,22.9
2018-05-29T17:32:46.756Z,22.9
2018-05-29T17:33:36.280Z,22.9
2018-05-29T17:34:27.139Z,22.8
2018-05-29T17:35:17.161Z,22.8
2018-05-29T17:36:07.201Z,22.8
2018-05-29T17:36:57.581Z,22.8
2018-05-29T17:37:47.659Z,22.8
2018-05-29T17:38:38.007Z,22.8
2018-05-29T17:39:28.038Z,22.8
2018-05-29T17:40:17.231Z,22.8
2018-05-29T17:41:08.184Z,22.8
2018-05-29T17:41:58.211Z,22.8
2018-05-29T17:42:48.024Z,22.8
2018-05-29T17:43:38.072Z,22.8
2018-05-29T17:44:28.179Z,22.8
2018-05-29T17:45:17.647Z,22.8
2018-05-29T17:46:07.742Z,22.8
2018-05-29T17:46:58.539Z,22.8
2018-05-29T17:47:48.625Z,22.8
2018-05-29T17:48:38.167Z,22.8
2018-05-29T17:49:28.515Z,22.8
2018-05-29T17:50:18.833Z,22.8
2018-05-29T17:51:08.623Z,22.8
2018-05-29T17:51:58.420Z,22.8
2018-05-29T17:52:48.209Z,22.8
2018-05-29T17:53:39.098Z,22.8
2018-05-29T17:54:28.554Z,22.8
2018-05-29T17:55:19.262Z,22.8
2018-05-29T17:56:09.006Z,22.8
2018-05-29T17:56:59.081Z,22.8
2018-05-29T17:57:48.299Z,22.8
2018-05-29T17:58:39.185Z,22.8
2018-05-29T17:59:28.967Z,22.8
2018-05-29T18:00:19.609Z,22.8
2018-05-29T18:01:09.453Z,22.8
2018-05-29T18:01:59.452Z,22.7
2018-05-29T18:02:49.279Z,22.8
2018-05-29T18:03:38.560Z,22.7
2018-05-29T18:04:29.628Z,22.8
2018-05-29T18:05:19.961Z,22.7
2018-05-29T18:06:10.021Z,22.8
2018-05-29T18:06:59.801Z,22.7
2018-05-29T18:07:49.879Z,22.8
2018-05-29T18:08:39.670Z,22.7
2018-05-29T18:09:29.788Z,22.7
2018-05-29T18:10:20.442Z,22.7
2018-05-29T18:11:09.919Z,22.7
2018-05-29T18:11:59.680Z,22.7
2018-05-29T18:12:50.260Z,22.7
2018-05-29T18:13:40.020Z,22.7
2018-05-29T18:14:30.683Z,22.7
2018-05-29T18:15:20.759Z,22.7
2018-05-29T18:16:10.521Z,22.7
2018-05-29T18:17:00.645Z,22.7
2018-05-29T18:17:49.851Z,22.7
2018-05-29T18:18:40.201Z,22.7
2018-05-29T18:19:30.288Z,22.6
2018-05-29T18:20:20.698Z,22.7
2018-05-29T18:21:10.076Z,22.7
2018-05-29T18:22:01.297Z,22.6
2018-05-29T18:22:50.010Z,22.6
2018-05-29T18:23:41.083Z,22.6
2018-05-29T18:24:30.932Z,22.6
2018-05-29T18:25:20.715Z,22.6
2018-05-29T18:26:11.383Z,22.6
2018-05-29T18:27:01.388Z,22.6
2018-05-29T18:27:50.642Z,22.6
2018-05-29T18:28:41.230Z,22.6
2018-05-29T18:29:31.317Z,22.6
2018-05-29T18:30:21.337Z,22.6
2018-05-29T18:31:12.462Z,22.6
2018-05-29T18:32:02.092Z,22.6
2018-05-29T18:32:51.936Z,22.6
2018-05-29T18:33:41.307Z,22.6
2018-05-29T18:34:31.923Z,22.6
2018-05-29T18:35:22.022Z,22.6
2018-05-29T18:36:12.346Z,22.6
2018-05-29T18:37:01.822Z,22.6
2018-05-29T18:37:51.669Z,22.6
2018-05-29T18:38:42.237Z,22.6
2018-05-29T18:39:32.353Z,22.6
2018-05-29T18:40:20.986Z,22.6
2018-05-29T18:41:12.774Z,22.6
2018-05-29T18:42:01.983Z,22.6
2018-05-29T18:42:52.030Z,22.6
2018-05-29T18:43:42.209Z,22.6
2018-05-29T18:44:33.545Z,22.6
2018-05-29T18:45:22.832Z,22.6
2018-05-29T18:46:12.591Z,22.6
2018-05-29T18:47:03.441Z,22.6
2018-05-29T18:47:52.930Z,22.6
2018-05-29T18:48:42.186Z,22.6
2018-05-29T18:49:33.784Z,22.6
2018-05-29T18:50:23.467Z,22.6
2018-05-29T18:51:12.913Z,22.6
2018-05-29T18:52:02.971Z,22.6
2018-05-29T18:52:53.587Z,22.5
2018-05-29T18:53:43.088Z,22.6
2018-05-29T18:54:32.646Z,22.5
2018-05-29T18:55:23.781Z,22.5
2018-05-29T18:56:12.720Z,22.5
2018-05-29T18:57:03.443Z,22.5
2018-05-29T18:57:52.597Z,22.5
2018-05-29T18:58:44.085Z,22.5
2018-05-29T18:59:33.850Z,22.5
2018-05-29T19:00:23.937Z,22.5
2018-05-29T19:01:13.663Z,22.5
2018-05-29T19:02:04.053Z,22.6
2018-05-29T19:02:54.105Z,22.5
2018-05-29T19:03:44.041Z,22.5
2018-05-29T19:04:34.004Z,22.5
2018-05-29T19:05:23.761Z,22.6
2018-05-29T19:06:14.039Z,22.5
2018-05-29T19:07:04.412Z,22.5
2018-05-29T19:07:54.777Z,22.5
2018-05-29T19:08:43.928Z,22.5
2018-05-29T19:09:34.090Z,22.5
2018-05-29T19:10:24.663Z,22.5
2018-05-29T19:11:13.951Z,22.5
2018-05-29T19:12:04.250Z,22.5
2018-05-29T19:12:54.345Z,22.5
2018-05-29T19:13:44.378Z,22.5
2018-05-29T19:14:35.065Z,22.5
2018-05-29T19:15:25.110Z,22.5
2018-05-29T19:16:15.104Z,22.5
2018-05-29T19:17:05.870Z,22.5
2018-05-29T19:17:54.747Z,22.5
2018-05-29T19:18:44.836Z,22.5
2018-05-29T19:19:35.132Z,22.5
2018-05-29T19:20:24.642Z,22.5
2018-05-29T19:21:14.969Z,22.6
2018-05-29T19:22:05.635Z,22.5
2018-05-29T19:22:57.138Z,22.5
2018-05-29T19:23:45.649Z,22.6
2018-05-29T19:24:35.705Z,22.5
2018-05-29T19:25:25.352Z,22.5
2018-05-29T19:26:15.572Z,22.5
2018-05-29T19:27:05.671Z,22.5
2018-05-29T19:27:55.701Z,22.5
2018-05-29T19:28:45.599Z,22.5
2018-05-29T19:29:35.277Z,22.5
2018-05-29T19:30:26.285Z,22.6
2018-05-29T19:31:15.750Z,22.5
2018-05-29T19:32:06.382Z,22.5
2018-05-29T19:32:56.450Z,22.6
2018-05-29T19:33:46.147Z,22.6
2018-05-29T19:34:36.535Z,22.6
2018-05-29T19:35:26.817Z,22.5
2018-05-29T19:36:16.377Z,22.6
2018-05-29T19:37:06.371Z,22.6
2018-05-29T19:37:56.755Z,22.6
2018-05-29T19:38:46.850Z,22.5
2018-05-29T19:39:36.722Z,22.5
2018-05-29T19:40:26.212Z,22.6
2018-05-29T19:41:16.252Z,22.5
2018-05-29T19:42:06.547Z,22.6
2018-05-29T19:42:56.875Z,22.6
2018-05-29T19:43:46.956Z,22.6
2018-05-29T19:44:36.482Z,22.6
2018-05-29T19:45:27.384Z,22.5
2018-05-29T19:46:17.648Z,22.6
2018-05-29T19:47:07.514Z,22.6
2018-05-29T19:47:58.013Z,22.6
2018-05-29T19:48:47.310Z,22.6
2018-05-29T19:49:37.645Z,22.6
2018-05-29T19:50:28.022Z,22.6
2018-05-29T19:51:18.465Z,22.6
2018-05-29T19:52:07.537Z,22.6
2018-05-29T19:52:57.336Z,22.6
2018-05-29T19:53:48.377Z,22.6
2018-05-29T19:54:37.812Z,22.6
2018-05-29T19:55:27.870Z,22.5
2018-05-29T19:56:17.907Z,22.6
2018-05-29T19:57:07.098Z,22.6
2018-05-29T19:57:58.635Z,22.6
2018-05-29T19:58:47.825Z,22.6
2018-05-29T19:59:38.780Z,22.6
2018-05-29T20:00:28.279Z,22.6
2018-05-29T20:01:19.486Z,22.6
2018-05-29T20:02:07.581Z,22.6
2018-05-29T20:02:57.875Z,22.6
2018-05-29T20:03:48.187Z,22.6
2018-05-29T20:04:38.839Z,22.6
2018-05-29T20:05:28.329Z,22.6
2018-05-29T20:06:18.922Z,22.6
2018-05-29T20:07:08.515Z,22.6
2018-05-29T20:07:59.314Z,22.6
2018-05-29T20:08:49.166Z,22.6
2018-05-29T20:09:38.659Z,22.6
2018-05-29T20:10:29.141Z,22.6
2018-05-29T20:11:18.581Z,22.6
2018-05-29T20:12:08.941Z,22.6
2018-05-29T20:12:58.946Z,22.6
2018-05-29T20:13:49.863Z,22.6
2018-05-29T20:14:39.312Z,22.6
2018-05-29T20:15:29.913Z,22.6
2018-05-29T20:16:20.000Z,22.6
2018-05-29T20:17:09.124Z,22.6
2018-05-29T20:17:58.774Z,22.6
2018-05-29T20:18:49.067Z,22.6
2018-05-29T20:19:38.629Z,22.6
2018-05-29T20:20:30.221Z,22.6
2018-05-29T20:21:20.304Z,22.6
2018-05-29T20:22:09.825Z,22.6
2018-05-29T20:22:59.900Z,22.6
2018-05-29T20:23:50.341Z,22.6
2018-05-29T20:24:40.123Z,22.6
2018-05-29T20:25:29.535Z,22.6
2018-05-29T20:26:19.660Z,22.6
2018-05-29T20:27:09.674Z,22.6
2018-05-29T20:28:00.927Z,22.6
2018-05-29T20:28:50.401Z,22.6
2018-05-29T20:29:40.462Z,22.6
2018-05-29T20:30:30.239Z,22.6
2018-05-29T20:31:21.511Z,22.6
2018-05-29T20:32:10.405Z,22.6
2018-05-29T20:33:00.693Z,22.6
2018-05-29T20:33:51.348Z,22.6
2018-05-29T20:34:41.142Z,22.6
2018-05-29T20:35:30.116Z,22.6
2018-05-29T20:36:21.063Z,22.6
2018-05-29T20:37:10.603Z,22.6
2018-05-29T20:38:00.901Z,22.6
2018-05-29T20:38:52.063Z,22.6
2018-05-29T20:39:41.244Z,22.6
2018-05-29T20:40:31.831Z,22.6
2018-05-29T20:41:20.755Z,22.6
2018-05-29T20:42:11.746Z,22.6
2018-05-29T20:43:01.797Z,22.6
2018-05-29T20:43:51.961Z,22.6
2018-05-29T20:44:41.407Z,22.6
2018-05-29T20:45:31.978Z,22.6
2018-05-29T20:46:21.446Z,22.6
2018-05-29T20:47:11.833Z,22.6
2018-05-29T20:48:02.157Z,22.6
2018-05-29T20:48:52.275Z,22.6
2018-05-29T20:49:41.700Z,22.6
2018-05-29T20:50:31.513Z,22.6
2018-05-29T20:51:22.143Z,22.6
2018-05-29T20:52:12.149Z,22.6
2018-05-29T20:53:02.252Z,22.6
2018-05-29T20:53:52.809Z,22.6
2018-05-29T20:54:42.395Z,22.6
2018-05-29T20:55:32.976Z,22.6
2018-05-29T20:56:22.547Z,22.6
2018-05-29T20:57:12.267Z,22.6
2018-05-29T20:58:03.245Z,22.6
2018-05-29T20:58:53.008Z,22.6
2018-05-29T20:59:41.907Z,22.6
2018-05-29T21:00:32.822Z,22.6
2018-05-29T21:01:22.615Z,22.6
2018-05-29T21:02:12.642Z,22.6
2018-05-29T21:03:03.294Z,22.6
2018-05-29T21:03:53.418Z,22.6
2018-05-29T21:04:43.375Z,22.6
2018-05-29T21:05:33.487Z,22.6
2018-05-29T21:06:23.255Z,22.6
2018-05-29T21:07:13.892Z,22.6
2018-05-29T21:08:03.989Z,22.6
2018-05-29T21:08:54.030Z,22.6
2018-05-29T21:09:44.135Z,22.6
2018-05-29T21:10:33.544Z,22.6
2018-05-29T21:11:23.939Z,22.6
2018-05-29T21:12:14.026Z,22.6
2018-05-29T21:13:04.023Z,22.6
2018-05-29T21:13:54.060Z,22.6
2018-05-29T21:14:44.451Z,22.6
2018-05-29T21:15:33.514Z,22.6
2018-05-29T21:16:23.431Z,22.6
2018-05-29T21:17:14.657Z,22.6
2018-05-29T21:18:04.169Z,22.6
2018-05-29T21:18:54.599Z,22.6
2018-05-29T21:19:44.597Z,22.6
2018-05-29T21:20:34.012Z,22.6
2018-05-29T21:21:24.312Z,22.6
2018-05-29T21:22:14.359Z,22.6
2018-05-29T21:23:04.498Z,22.6
2018-05-29T21:23:54.757Z,22.6
2018-05-29T21:24:45.107Z,22.6
2018-05-29T21:25:34.698Z,22.6
2018-05-29T21:26:25.028Z,22.6
2018-05-29T21:27:15.062Z,22.6
2018-05-29T21:28:05.137Z,22.6
2018-05-29T21:28:54.611Z,22.6
2018-05-29T21:29:45.253Z,22.6
2018-05-29T21:30:35.635Z,22.6
2018-05-29T21:31:25.676Z,22.6
2018-05-29T21:32:15.136Z,22.6
2018-05-29T21:33:05.508Z,22.6
2018-05-29T21:33:54.414Z,22.6
2018-05-29T21:34:45.351Z,22.6
2018-05-29T21:35:35.649Z,22.6
2018-05-29T21:36:26.035Z,22.6
2018-05-29T21:37:15.843Z,22.6
2018-05-29T21:38:05.555Z,22.6
2018-05-29T21:38:55.380Z,22.6
2018-05-29T21:39:46.269Z,22.6
2018-05-29T21:40:36.364Z,22.6
2018-05-29T21:41:26.089Z,22.6
2018-05-29T21:42:16.148Z,22.6
2018-05-29T21:43:06.223Z,22.6
2018-05-29T21:43:56.578Z,22.6
2018-05-29T21:44:46.071Z,22.7
2018-05-29T21:45:36.702Z,22.7
2018-05-29T21:46:26.915Z,22.7
2018-05-29T21:47:16.527Z,22.7
2018-05-29T21:48:06.325Z,22.7
2018-05-29T21:48:56.413Z,22.7
2018-05-29T21:49:46.754Z,22.7
2018-05-29T21:50:36.505Z,22.7
2018-05-29T21:51:26.904Z,22.7
2018-05-29T21:52:16.934Z,22.7
2018-05-29T21:53:06.970Z,22.7
2018-05-29T21:53:57.371Z,22.7
2018-05-29T21:54:46.899Z,22.7
2018-05-29T21:55:36.911Z,22.7
2018-05-29T21:56:27.231Z,22.7
2018-05-29T21:57:17.330Z,22.7
2018-05-29T21:58:07.122Z,22.7
2018-05-29T21:58:56.878Z,22.7
2018-05-29T21:59:47.216Z,22.7
2018-05-29T22:00:37.315Z,22.7
2018-05-29T22:01:27.365Z,22.7
2018-05-29T22:02:17.686Z,22.7
2018-05-29T22:03:07.773Z,22.8
2018-05-29T22:03:57.840Z,22.7
2018-05-29T22:04:47.313Z,22.7
2018-05-29T22:05:37.394Z,22.7
2018-05-29T22:06:27.718Z,22.8
2018-05-29T22:07:17.795Z,22.7
2018-05-29T22:08:07.327Z,22.8
2018-05-29T22:08:57.104Z,22.7
2018-05-29T22:09:48.560Z,22.7
2018-05-29T22:10:38.378Z,22.8
2018-05-29T22:11:28.673Z,22.8
2018-05-29T22:12:18.162Z,22.8
2018-05-29T22:13:08.812Z,22.7
2018-05-29T22:13:58.657Z,22.8
2018-05-29T22:14:48.862Z,22.8
2018-05-29T22:15:39.024Z,22.8
2018-05-29T22:16:29.262Z,22.8
2018-05-29T22:17:19.101Z,22.8
2018-05-29T22:18:09.206Z,22.7
2018-05-29T22:18:59.234Z,22.8
2018-05-29T22:19:48.763Z,22.8
2018-05-29T22:20:39.061Z,22.8
2018-05-29T22:21:28.963Z,22.8
2018-05-29T22:22:19.216Z,22.8
2018-05-29T22:23:09.046Z,22.8
2018-05-29T22:23:59.119Z,22.8
2018-05-29T22:24:49.419Z,22.8
2018-05-29T22:25:39.500Z,22.8
2018-05-29T22:26:29.863Z,22.8
2018-05-29T22:27:19.901Z,22.8
2018-05-29T22:28:09.953Z,22.8
2018-05-29T22:28:59.769Z,22.8
2018-05-29T22:29:50.064Z,22.8
2018-05-29T22:30:40.761Z,22.8
2018-05-29T22:31:29.942Z,22.8
2018-05-29T22:32:20.306Z,22.8
2018-05-29T22:33:10.345Z,22.8
2018-05-29T22:33:59.874Z,22.8
2018-05-29T22:34:49.940Z,22.8
2018-05-29T22:35:40.308Z,22.8
2018-05-29T22:36:30.031Z,22.8
2018-05-29T22:37:20.637Z,22.8
2018-05-29T22:38:10.190Z,22.8
2018-05-29T22:39:00.184Z,22.8
2018-05-29T22:39:50.594Z,22.8
2018-05-29T22:40:40.586Z,22.8
2018-05-29T22:41:30.398Z,22.8
2018-05-29T22:42:21.068Z,22.8
2018-05-29T22:43:10.240Z,22.8
2018-05-29T22:44:00.100Z,22.8
2018-05-29T22:44:50.400Z,22.8
2018-05-29T22:45:40.122Z,22.8
2018-05-29T22:46:30.771Z,22.8
2018-05-29T22:47:20.552Z,22.8
2018-05-29T22:48:11.233Z,22.8
2018-05-29T22:49:01.563Z,22.8
2018-05-29T22:49:51.635Z,22.8
2018-05-29T22:50:41.426Z,22.8
2018-05-29T22:51:31.783Z,22.8
2018-05-29T22:52:21.252Z,22.8
2018-05-29T22:53:11.324Z,22.8
2018-05-29T22:54:01.720Z,22.8
2018-05-29T22:54:51.155Z,22.8
2018-05-29T22:55:41.220Z,22.8
2018-05-29T22:56:31.965Z,22.8
2018-05-29T22:57:21.345Z,22.8
2018-05-29T22:58:12.030Z,22.8
2018-05-29T22:59:01.803Z,22.8
2018-05-29T22:59:51.805Z,22.8
2018-05-29T23:00:42.442Z,22.8
2018-05-29T23:01:32.244Z,22.8
2018-05-29T23:02:22.017Z,22.8
2018-05-29T23:03:12.350Z,22.8
2018-05-29T23:04:02.102Z,22.8
2018-05-29T23:04:52.760Z,22.8
2018-05-29T23:05:43.118Z,22.8
2018-05-29T23:06:32.322Z,22.8
2018-05-29T23:07:22.742Z,22.8
2018-05-29T23:08:12.442Z,22.8
2018-05-29T23:09:02.825Z,22.8
2018-05-29T23:09:51.752Z,22.8
2018-05-29T23:10:42.995Z,22.8
2018-05-29T23:11:33.260Z,22.8
2018-05-29T23:12:23.316Z,22.8
2018-05-29T23:13:13.156Z,22.8
2018-05-29T23:14:03.174Z,22.8
2018-05-29T23:14:53.520Z,22.8
2018-05-29T23:15:43.024Z,22.8
2018-05-29T23:16:33.580Z,22.8
2018-05-29T23:17:23.140Z,22.8
2018-05-29T23:18:12.931Z,22.8
2018-05-29T23:19:03.554Z,22.8
2018-05-29T23:19:53.040Z,22.8
2018-05-29T23:20:43.105Z,22.8
2018-05-29T23:21:33.427Z,22.8
2018-05-29T23:22:22.927Z,22.8
2018-05-29T23:23:13.865Z,22.8
2018-05-29T23:24:04.262Z,22.8
2018-05-29T23:24:53.409Z,22.8
2018-05-29T23:25:44.051Z,22.8
2018-05-29T23:26:33.891Z,22.8
2018-05-29T23:27:23.897Z,22.9
2018-05-29T23:28:13.975Z,22.8
2018-05-29T23:29:03.552Z,22.8
2018-05-29T23:29:53.600Z,22.8
2018-05-29T23:30:44.179Z,22.8
2018-05-29T23:31:34.494Z,22.8
2018-05-29T23:32:24.290Z,22.8
2018-05-29T23:33:14.939Z,22.8
2018-05-29T23:34:04.709Z,22.8
2018-05-29T23:34:54.752Z,22.8
2018-05-29T23:35:45.005Z,22.8
2018-05-29T23:36:34.061Z,22.8
2018-05-29T23:37:25.227Z,22.8
2018-05-29T23:38:14.483Z,22.8
2018-05-29T23:39:05.332Z,22.8
2018-05-29T23:39:54.312Z,22.8
2018-05-29T23:40:45.196Z,22.8
2018-05-29T23:41:35.292Z,22.8
2018-05-29T23:42:25.057Z,22.8
2018-05-29T23:43:15.112Z,22.8
2018-05-29T23:44:05.731Z,22.8
2018-05-29T23:44:55.248Z,22.8
2018-05-29T23:45:45.616Z,22.8
2018-05-29T23:46:35.896Z,22.8
2018-05-29T23:47:25.740Z,22.8
2018-05-29T23:48:15.478Z,22.8
2018-05-29T23:49:05.807Z,22.8
2018-05-29T23:49:56.210Z,22.8
2018-05-29T23:50:45.674Z,22.8
2018-05-29T23:51:36.300Z,22.8
2018-05-29T23:52:26.089Z,22.8
2018-05-29T23:53:15.908Z,22.8
2018-05-29T23:54:06.564Z,22.8